White Pass
White Pass Ski Area
Latest observation 08/31 21:00 PDT
| Time (PDT) | Temp °F 5800' | Temp °F 4500' | RH % 5800' | RH % 4500' | Min mph 5970' | Spd mph 5970' | Gust mph 5970' | Dir ° 5970' | Pcp1 in 5800' | PcpSum in 5800' | 24Sno in 5800' | SnoHt in 5800' |
|---|---|---|---|---|---|---|---|---|---|---|---|---|
| 08/31 21:00 | 55 | 56 | 48 | 59 | 4 | 6 | 12 | 96 | 0.00 | 0.30 | 0.1 | 6.7 |
| 08/31 20:00 | 55 | 60 | 47 | 49 | 4 | 7 | 12 | 88 | 0.00 | 0.30 | 0.1 | 6.5 |
| 08/31 19:00 | 58 | 66 | 45 | 36 | 8 | 13 | 19 | 83 | 0.00 | 0.30 | 0.1 | 5.9 |
| 08/31 18:00 | 61 | 70 | 40 | 31 | 8 | 13 | 19 | 84 | 0.00 | 0.30 | 0.0 | 6.1 |
| 08/31 17:00 | 62 | 69 | 39 | 31 | 7 | 12 | 19 | 77 | 0.00 | 0.30 | 0.0 | 5.3 |
| 08/31 16:00 | 64 | 69 | 39 | 32 | 9 | 14 | 20 | 72 | 0.00 | 0.30 | 0.0 | 4.6 |
| 08/31 15:00 | 64 | 68 | 37 | 33 | 9 | 14 | 20 | 75 | 0.00 | 0.30 | 0.0 | 4.7 |
| 08/31 14:00 | 63 | 67 | 39 | 35 | 10 | 14 | 20 | 75 | 0.00 | 0.30 | -0.3 | 4.5 |
| 08/31 13:00 | 63 | 65 | 43 | 39 | 9 | 15 | 21 | 73 | 0.00 | 0.30 | -0.2 | 4.8 |
| 08/31 12:00 | 61 | 63 | 46 | 43 | 11 | 15 | 21 | 70 | 0.00 | 0.30 | 0.0 | 5.3 |
| 08/31 11:00 | 58 | 59 | 50 | 53 | 12 | 18 | 23 | 82 | 0.00 | 0.30 | 0.1 | 5.7 |
| 08/31 10:00 | 54 | 54 | 54 | 64 | 12 | 17 | 21 | 81 | 0.00 | 0.30 | 0.1 | 6.3 |
| 08/31 09:00 | 55 | 52 | 52 | 70 | 11 | 16 | 23 | 94 | 0.00 | 0.30 | 0.1 | 6.9 |
| 08/31 08:00 | 50 | 49 | 60 | 81 | 6 | 10 | 20 | 106 | 0.00 | 0.30 | 0.2 | 7.2 |
| 08/31 07:00 | 48 | 44 | 64 | 94 | 6 | 7 | 9 | 109 | 0.00 | 0.30 | 0.2 | 7.5 |
| 08/31 06:00 | 48 | 43 | 65 | 95 | 5 | 7 | 11 | 107 | 0.00 | 0.30 | 0.2 | 7.4 |
| 08/31 05:00 | 50 | 43 | 61 | 96 | 4 | 6 | 8 | 115 | 0.00 | 0.30 | 0.2 | 7.1 |
| 08/31 04:00 | 49 | 44 | 67 | 96 | 0 | 2 | 6 | 127 | 0.00 | 0.30 | 0.2 | 7.3 |
| 08/31 03:00 | 51 | 44 | 62 | 95 | 0 | 3 | 7 | 204 | 0.00 | 0.30 | 0.1 | 7.4 |
| 08/31 02:00 | 50 | 45 | 65 | 95 | 0 | 1 | 4 | 162 | 0.00 | 0.30 | 0.1 | 7.4 |
| 08/31 01:00 | 49 | 45 | 73 | 95 | 0 | 2 | 4 | 186 | 0.00 | 0.30 | 0.2 | 7.5 |
| 08/31 00:00 | 48 | 44 | 80 | 94 | 0 | 1 | 4 | 179 | 0.00 | 0.30 | 0.1 | 7.4 |
| 08/30 23:00 | 48 | 45 | 79 | 92 | 0 | 4 | 7 | 91 | 0.00 | 0.30 | 0.2 | 7.1 |
| 08/30 22:00 | 47 | 46 | 85 | 90 | 0 | 4 | 6 | 139 | 0.00 | 0.30 | 0.1 | 7.5 |
| 08/30 21:00 | 46 | 48 | 87 | 87 | 2 | 7 | 11 | 254 | 0.00 | 0.30 | 0.1 | 7.7 |
| 08/30 20:00 | 47 | 51 | 85 | 80 | 6 | 9 | 13 | 259 | 0.00 | 0.30 | 0.2 | 7.4 |
| 08/30 19:00 | 49 | 57 | 79 | 64 | 10 | 14 | 19 | 258 | 0.00 | 0.30 | 0.2 | 6.8 |
| 08/30 18:00 | 51 | 59 | 73 | 58 | 9 | 15 | 20 | 262 | 0.00 | 0.30 | 0.3 | 6.6 |
| 08/30 17:00 | 51 | 58 | 73 | 59 | 11 | 15 | 23 | 260 | 0.00 | 0.30 | 0.2 | 6.4 |
| 08/30 16:00 | 52 | 59 | 71 | 57 | 6 | 15 | 23 | 260 | 0.00 | 0.30 | 0.2 | 5.9 |
| 08/30 15:00 | 51 | 57 | 74 | 60 | 9 | 14 | 19 | 262 | 0.00 | 0.30 | 0.0 | 6.0 |
| 08/30 14:00 | 49 | 55 | 79 | 62 | 8 | 13 | 18 | 262 | 0.00 | 0.30 | -0.1 | 5.6 |
| 08/30 13:00 | 47 | 53 | 81 | 64 | 4 | 9 | 16 | 259 | 0.00 | 0.30 | 0.0 | 5.5 |
| 08/30 12:00 | 46 | 49 | 83 | 71 | 2 | 8 | 16 | 258 | 0.00 | 0.30 | 0.2 | 4.9 |
| 08/30 11:00 | 41 | 47 | 91 | 77 | 7 | 12 | 16 | 260 | 0.00 | 0.30 | 0.1 | 4.4 |
| 08/30 10:00 | 38 | 45 | 96 | 83 | 9 | 15 | 20 | 259 | 0.00 | 0.30 | 0.2 | 4.9 |
| 08/30 09:00 | 37 | 42 | 98 | 86 | 7 | 14 | 21 | 259 | 0.00 | 0.30 | 0.2 | 5.8 |
| 08/30 08:00 | 36 | 41 | 98 | 91 | 8 | 12 | 18 | 261 | 0.00 | 0.30 | 0.0 | 5.4 |
| 08/30 07:00 | 35 | 40 | 98 | 94 | 8 | 13 | 17 | 261 | 0.00 | 0.30 | 0.1 | 6.2 |
| 08/30 06:00 | 34 | 39 | 98 | 94 | 9 | 13 | 17 | 259 | 0.00 | 0.30 | 0.1 | 5.8 |
| 08/30 05:00 | 35 | 39 | 98 | 97 | 8 | 13 | 21 | 253 | 0.00 | 0.30 | 0.1 | 5.7 |
| 08/30 04:00 | 35 | 38 | 98 | 99 | 8 | 13 | 19 | 256 | 0.00 | 0.30 | 0.1 | 5.7 |
| 08/30 03:00 | 35 | 38 | 98 | 97 | 10 | 13 | 17 | 260 | 0.00 | 0.30 | 0.1 | 5.7 |
| 08/30 02:00 | 36 | 41 | 98 | 93 | 10 | 16 | 23 | 265 | 0.00 | 0.30 | 0.1 | 5.8 |
| 08/30 01:00 | 36 | 41 | 98 | 92 | 11 | 17 | 24 | 265 | 0.00 | 0.30 | 0.0 | 5.6 |
| 08/30 00:00 | 37 | 42 | 98 | 96 | 10 | 16 | 24 | 257 | 0.00 | 0.30 | 0.2 | 5.0 |
| 08/29 23:00 | 38 | 43 | 98 | 92 | 11 | 16 | 25 | 266 | 0.00 | 0.30 | 0.2 | 5.2 |
| 08/29 22:00 | 39 | 43 | 98 | 92 | 13 | 20 | 29 | 264 | 0.00 | 0.30 | 0.1 | 5.6 |
| 08/29 21:00 | 39 | 44 | 98 | 92 | 16 | 23 | 34 | 263 | 0.01 | 0.30 | 0.1 | 5.3 |
| 08/29 20:00 | 39 | 44 | 98 | 94 | 14 | 22 | 35 | 261 | 0.00 | 0.29 | 0.2 | 5.2 |
| 08/29 19:00 | 39 | 44 | 98 | 94 | 13 | 22 | 34 | 261 | 0.04 | 0.29 | 0.2 | 5.2 |
| 08/29 18:00 | 39 | 46 | 96 | 85 | 12 | 22 | 34 | 261 | 0.00 | 0.25 | 0.2 | 5.0 |
| 08/29 17:00 | 39 | 45 | 96 | 88 | 13 | 23 | 36 | 261 | 0.02 | 0.25 | 0.2 | 5.0 |
| 08/29 16:00 | 41 | 46 | 95 | 83 | 16 | 26 | 40 | 258 | 0.00 | 0.23 | 0.2 | 4.7 |
| 08/29 15:00 | 40 | 45 | 96 | 88 | 12 | 26 | 43 | 259 | 0.00 | 0.23 | 0.2 | 5.2 |
| 08/29 14:00 | 39 | 44 | 95 | 90 | 12 | 22 | 38 | 261 | 0.03 | 0.23 | 0.2 | 4.6 |
| 08/29 13:00 | 38 | 44 | 97 | 91 | 13 | 25 | 37 | 261 | 0.04 | 0.20 | 0.1 | 5.4 |
| 08/29 12:00 | 38 | 43 | 97 | 93 | 13 | 22 | 36 | 258 | 0.04 | 0.16 | 0.1 | 5.2 |
| 08/29 11:00 | 38 | 44 | 97 | 88 | 17 | 29 | 42 | 260 | 0.00 | 0.12 | 0.1 | 5.2 |
| 08/29 10:00 | 36 | 42 | 98 | 92 | 16 | 28 | 41 | 258 | 0.00 | 0.12 | 0.1 | 5.3 |
| 08/29 09:00 | 35 | 41 | 96 | 93 | 18 | 31 | 52 | 267 | 0.05 | 0.12 | 0.2 | 5.3 |
| 08/29 08:00 | 37 | 41 | 96 | 96 | 21 | 29 | 43 | 260 | 0.06 | 0.07 | 0.1 | 5.4 |
| 08/29 07:00 | 36 | 42 | 94 | 88 | 14 | 25 | 39 | 260 | 0.01 | 0.01 | 0.0 | 7.0 |
| 08/29 06:00 | 36 | 42 | 91 | 78 | 19 | 29 | 41 | 251 | 0.00 | 0.00 | 0.1 | 8.2 |
| 08/29 05:00 | 36 | 42 | 88 | 77 | 16 | 24 | 33 | 256 | 0.00 | 0.00 | 0.1 | 8.1 |
| 08/29 04:00 | 38 | 44 | 87 | 76 | 8 | 18 | 29 | 252 | 0.00 | 0.00 | 0.2 | 7.4 |
| 08/29 03:00 | 40 | 46 | 87 | 76 | 7 | 20 | 36 | 259 | 0.00 | 0.00 | 0.1 | 7.5 |
| 08/29 02:00 | 40 | 46 | 86 | 81 | 17 | 33 | 46 | 247 | 0.00 | 0.00 | 0.2 | 7.5 |
| 08/29 01:00 | 41 | 47 | 90 | 75 | 14 | 23 | 33 | 251 | 0.00 | 0.00 | 0.2 | 7.5 |
| 08/29 00:00 | 42 | 48 | 91 | 77 | 13 | 25 | 35 | 263 | 0.00 | 0.00 | 0.1 | 7.4 |
| 08/28 23:00 | 42 | 49 | 91 | 78 | 8 | 17 | 28 | 266 | 0.00 | 0.00 | 0.2 | 7.2 |
| 08/28 22:00 | 44 | 50 | 91 | 77 | 10 | 19 | 27 | 265 | 0.00 | 0.00 | 0.1 | 7.1 |
| 08/28 21:00 | 45 | 51 | 90 | 78 | 11 | 19 | 30 | 265 | 0.00 | 0.00 | 0.1 | 7.0 |
| 08/28 20:00 | 47 | 53 | 87 | 76 | 9 | 17 | 27 | 265 | 0.00 | 0.00 | 0.2 | 7.1 |
| 08/28 19:00 | 50 | 58 | 74 | 61 | 7 | 14 | 23 | 260 | 0.00 | 0.00 | 0.1 | 6.9 |
| 08/28 18:00 | 53 | 61 | 62 | 53 | 11 | 21 | 30 | 262 | 0.00 | 0.00 | 0.1 | 6.5 |
| 08/28 17:00 | 55 | 61 | 57 | 52 | 10 | 21 | 35 | 260 | 0.00 | 0.00 | 0.1 | 6.2 |
| 08/28 16:00 | 56 | 62 | 53 | 47 | 8 | 16 | 27 | 260 | 0.00 | 0.00 | 0.1 | 5.6 |
| 08/28 15:00 | 57 | 62 | 54 | 48 | 7 | 17 | 28 | 263 | 0.00 | 0.00 | 0.0 | 5.3 |
| 08/28 14:00 | 56 | 61 | 53 | 47 | 10 | 17 | 24 | 263 | 0.00 | 0.00 | -0.1 | 5.1 |
| 08/28 13:00 | 55 | 60 | 63 | 55 | 6 | 13 | 22 | 262 | 0.00 | 0.00 | 0.1 | 5.5 |
| 08/28 12:00 | 53 | 58 | 68 | 61 | 3 | 8 | 13 | 261 | 0.00 | 0.00 | 0.2 | 5.6 |
| 08/28 11:00 | 53 | 55 | 58 | 69 | 4 | 9 | 16 | 256 | 0.00 | 0.00 | 0.1 | 6.1 |
| 08/28 10:00 | 50 | 53 | 64 | 73 | 4 | 9 | 18 | 258 | 0.00 | 0.00 | 0.2 | 6.2 |
| 08/28 09:00 | 48 | 49 | 68 | 82 | 7 | 13 | 18 | 256 | 0.00 | 0.00 | 0.2 | 7.4 |
| 08/28 08:00 | 42 | 48 | 86 | 87 | 10 | 14 | 18 | 256 | 0.00 | 0.00 | 0.2 | 8.0 |
| 08/28 07:00 | 40 | 46 | 92 | 90 | 9 | 12 | 14 | 255 | 0.00 | 0.00 | 0.2 | 7.9 |
| 08/28 06:00 | 41 | 45 | 90 | 92 | 4 | 8 | 11 | 260 | 0.00 | 0.00 | 0.2 | 7.8 |
| 08/28 05:00 | 42 | 47 | 98 | 92 | 8 | 12 | 18 | 256 | 0.00 | 0.00 | 0.0 | 7.6 |
| 08/28 04:00 | 42 | 45 | 98 | 96 | 11 | 14 | 18 | 261 | 0.00 | 0.00 | 0.2 | 7.7 |
| 08/28 03:00 | 41 | 44 | 96 | 98 | 11 | 13 | 16 | 259 | 0.00 | 0.00 | 0.2 | 7.8 |
| 08/28 02:00 | 43 | 46 | 95 | 93 | 11 | 13 | 17 | 262 | 0.00 | 0.00 | 0.2 | 7.4 |
| 08/28 01:00 | 44 | 46 | 95 | 92 | 12 | 15 | 18 | 259 | 0.00 | 0.00 | 0.2 | 7.7 |
| 08/28 00:00 | 44 | 48 | 94 | 87 | 11 | 18 | 25 | 263 | 0.00 | 0.00 | 0.1 | 7.5 |
| 08/27 23:00 | 44 | 49 | 93 | 85 | 18 | 23 | 28 | 262 | 0.00 | 0.00 | 0.2 | 7.6 |
| 08/27 22:00 | 44 | 50 | 92 | 82 | 16 | 22 | 30 | 264 | 0.00 | 0.00 | 0.1 | 7.4 |
| 08/27 21:00 | 45 | 51 | 87 | 78 | 16 | 22 | 28 | 265 | 0.00 | 0.00 | 0.1 | 7.4 |
| 08/27 20:00 | 47 | 53 | 79 | 69 | 9 | 19 | 32 | 261 | 0.00 | 0.00 | 0.2 | 7.5 |
| 08/27 19:00 | 49 | 57 | 71 | 58 | 13 | 22 | 32 | 264 | 0.00 | 0.00 | 0.1 | 7.4 |
| 08/27 18:00 | 52 | 58 | 65 | 57 | 9 | 19 | 31 | 260 | 0.00 | 0.00 | 0.1 | 6.7 |
| 08/27 17:00 | 52 | 56 | 68 | 61 | 12 | 23 | 39 | 265 | 0.00 | 0.00 | 0.0 | 6.5 |
| 08/27 16:00 | 52 | 56 | 70 | 62 | 16 | 26 | 35 | 260 | 0.00 | 0.00 | 0.1 | 6.3 |
| 08/27 15:00 | 54 | 58 | 63 | 57 | 16 | 25 | 38 | 260 | 0.00 | 0.00 | 0.0 | 6.2 |
| 08/27 14:00 | 56 | 59 | 55 | 52 | 8 | 19 | 28 | 264 | 0.00 | 0.00 | -0.1 | 5.3 |
| 08/27 13:00 | 54 | 57 | 58 | 54 | 9 | 16 | 28 | 264 | 0.00 | 0.00 | -0.1 | 6.2 |
| 08/27 12:00 | 54 | 58 | 52 | 48 | 8 | 16 | 25 | 260 | 0.00 | 0.00 | 0.0 | 5.8 |
| 08/27 11:00 | 52 | 57 | 61 | 58 | 6 | 18 | 27 | 257 | 0.00 | 0.00 | 0.1 | 6.1 |
| 08/27 10:00 | 50 | 55 | 74 | 67 | 8 | 18 | 28 | 259 | 0.00 | 0.00 | 0.2 | 6.9 |
| 08/27 09:00 | 48 | 54 | 81 | 70 | 11 | 17 | 26 | 252 | 0.00 | 0.00 | 0.1 | 7.2 |
| 08/27 08:00 | 47 | 54 | 86 | 73 | 15 | 21 | 30 | 254 | 0.00 | 0.00 | 0.2 | 7.3 |
| 08/27 07:00 | 48 | 54 | 84 | 75 | 17 | 24 | 34 | 248 | 0.00 | 0.00 | 0.2 | 7.1 |
| 08/27 06:00 | 49 | 54 | 78 | 74 | 19 | 28 | 40 | 241 | 0.00 | 0.00 | 0.1 | 6.9 |
| 08/27 05:00 | 49 | 55 | 77 | 71 | 18 | 25 | 35 | 242 | 0.00 | 0.00 | 0.1 | 6.9 |
| 08/27 04:00 | 50 | 57 | 75 | 67 | 22 | 29 | 41 | 252 | 0.00 | 0.00 | 0.1 | 7.0 |
| 08/27 03:00 | 50 | 57 | 76 | 68 | 16 | 25 | 39 | 251 | 0.00 | 0.00 | 0.2 | 7.0 |
| 08/27 02:00 | 49 | 55 | 85 | 75 | 11 | 19 | 30 | 257 | 0.00 | 0.00 | 0.2 | 7.3 |
| 08/27 01:00 | 51 | 56 | 84 | 74 | 7 | 17 | 28 | 266 | 0.00 | 0.00 | 0.2 | 7.2 |
| 08/27 00:00 | 51 | 57 | 82 | 73 | 2 | 10 | 21 | 282 | 0.00 | 0.00 | 0.1 | 7.1 |
| 08/26 23:00 | 52 | 57 | 79 | 72 | 2 | 6 | 18 | 304 | 0.00 | 0.00 | 0.2 | 7.3 |
| 08/26 22:00 | 53 | 58 | 75 | 67 | 5 | 11 | 18 | 279 | 0.00 | 0.00 | 0.1 | 6.7 |
| 08/26 21:00 | 54 | 60 | 69 | 63 | 6 | 12 | 18 | 272 | 0.00 | 0.00 | 0.1 | 7.1 |
| 08/26 20:00 | 56 | 62 | 62 | 55 | 11 | 18 | 27 | 262 | 0.00 | 0.00 | 0.2 | 6.5 |
| 08/26 19:00 | 59 | 67 | 53 | 44 | 15 | 23 | 32 | 257 | 0.00 | 0.00 | 0.1 | 6.4 |
| 08/26 18:00 | 61 | 68 | 45 | 38 | 15 | 24 | 35 | 258 | 0.00 | 0.00 | 0.0 | 6.1 |
| 08/26 17:00 | 65 | 70 | 37 | 33 | 11 | 20 | 32 | 258 | 0.00 | 0.00 | 0.0 | 5.4 |
| 08/26 16:00 | 65 | 71 | 39 | 35 | 6 | 16 | 28 | 260 | 0.00 | 0.00 | 0.0 | 4.9 |
| 08/26 15:00 | 65 | 70 | 39 | 36 | 8 | 20 | 28 | 259 | 0.00 | 0.00 | -0.1 | 5.1 |
| 08/26 14:00 | 66 | 70 | 36 | 33 | 14 | 21 | 32 | 259 | 0.00 | 0.00 | -0.2 | 4.8 |
| 08/26 13:00 | 67 | 70 | 40 | 37 | 13 | 21 | 28 | 259 | 0.00 | 0.00 | -0.1 | 4.8 |
| 08/26 12:00 | 69 | 70 | 35 | 43 | 11 | 18 | 25 | 254 | 0.00 | 0.00 | 0.1 | 5.0 |
| 08/26 11:00 | 69 | 66 | 21 | 51 | 10 | 17 | 25 | 240 | 0.00 | 0.00 | 0.0 | 4.7 |
| 08/26 10:00 | 67 | 62 | 19 | 63 | 3 | 9 | 19 | 240 | 0.00 | 0.00 | 0.0 | 5.0 |
| 08/26 09:00 | 66 | 59 | 20 | 70 | 0 | 3 | 8 | 267 | 0.00 | 0.00 | 0.1 | 5.9 |
| 08/26 08:00 | 62 | 57 | 21 | 57 | 5 | 10 | 15 | 217 | 0.00 | 0.00 | 0.1 | 6.2 |
| 08/26 07:00 | 59 | 54 | 22 | 45 | 11 | 14 | 17 | 218 | 0.00 | 0.00 | 0.2 | 6.4 |
| 08/26 06:00 | 58 | 50 | 19 | 46 | 10 | 12 | 15 | 218 | 0.00 | 0.00 | 0.2 | 6.7 |
| 08/26 05:00 | 57 | 50 | 20 | 50 | 8 | 12 | 15 | 219 | 0.00 | 0.00 | 0.1 | 6.9 |
| 08/26 04:00 | 55 | 51 | 22 | 49 | 8 | 16 | 23 | 232 | 0.00 | 0.00 | 0.2 | 6.8 |
| 08/26 03:00 | 57 | 51 | 22 | 53 | 10 | 15 | 20 | 237 | 0.00 | 0.00 | 0.2 | 6.7 |
| 08/26 02:00 | 55 | 52 | 26 | 54 | 8 | 13 | 18 | 242 | 0.00 | 0.00 | 0.1 | 6.6 |
| 08/26 01:00 | 53 | 54 | 40 | 81 | 6 | 12 | 19 | 241 | 0.00 | 0.00 | 0.0 | 7.1 |
| 08/26 00:00 | 55 | 55 | 78 | 82 | 5 | 8 | 13 | 257 | 0.00 | 0.00 | 0.2 | 6.9 |
| 08/25 23:00 | 55 | 57 | 79 | 77 | 10 | 14 | 20 | 248 | 0.00 | 0.00 | 0.1 | 6.7 |
| 08/25 22:00 | 57 | 61 | 76 | 71 | 4 | 10 | 15 | 263 | 0.00 | 0.00 | 0.2 | 6.6 |
| 08/25 21:00 | 59 | 63 | 71 | 67 | 6 | 11 | 20 | 265 | 0.00 | 0.00 | 0.2 | 6.4 |
| 08/25 20:00 | 62 | 68 | 61 | 55 | 8 | 16 | 25 | 250 | 0.00 | 0.00 | 0.0 | 6.1 |
| 08/25 19:00 | 66 | 74 | 50 | 42 | 10 | 18 | 25 | 260 | 0.00 | 0.00 | 0.3 | 5.6 |
| 08/25 18:00 | 69 | 76 | 43 | 38 | 11 | 18 | 25 | 266 | 0.00 | 0.00 | 0.0 | 5.4 |
| 08/25 17:00 | 71 | 78 | 36 | 32 | 8 | 15 | 23 | 260 | 0.00 | 0.00 | 0.0 | 5.0 |
| 08/25 16:00 | 70 | 76 | 33 | 30 | 3 | 10 | 20 | 266 | 0.00 | 0.00 | 0.0 | 5.3 |
| 08/25 15:00 | 73 | 77 | 28 | 26 | 5 | 14 | 24 | 73 | 0.00 | 0.00 | -0.1 | 4.1 |
| 08/25 14:00 | 73 | 76 | 27 | 26 | 8 | 14 | 20 | 66 | 0.00 | 0.00 | -0.3 | 4.0 |
| 08/25 13:00 | 73 | 75 | 30 | 29 | 6 | 12 | 19 | 66 | 0.00 | 0.00 | -0.1 | 4.3 |
| 08/25 12:00 | 71 | 73 | 33 | 32 | 8 | 13 | 20 | 66 | 0.00 | 0.00 | -0.0 | 4.0 |
| 08/25 11:00 | 69 | 70 | 34 | 36 | 11 | 16 | 23 | 75 | 0.00 | 0.00 | -0.0 | 4.7 |
| 08/25 10:00 | 66 | 66 | 37 | 40 | 13 | 18 | 23 | 81 | 0.00 | 0.00 | 0.1 | 4.8 |
| 08/25 09:00 | 64 | 64 | 39 | 42 | 11 | 18 | 24 | 84 | 0.00 | 0.00 | 0.1 | 6.0 |
| 08/25 08:00 | 58 | 55 | 46 | 61 | 13 | 18 | 24 | 84 | 0.00 | 0.00 | 0.1 | 6.2 |
| 08/25 07:00 | 57 | 51 | 44 | 68 | 14 | 19 | 23 | 84 | 0.00 | 0.00 | 0.1 | 6.7 |
| 08/25 06:00 | 57 | 51 | 39 | 67 | 8 | 12 | 16 | 88 | 0.00 | 0.00 | 0.2 | 6.7 |
| 08/25 05:00 | 56 | 51 | 40 | 66 | 6 | 8 | 13 | 90 | 0.00 | 0.00 | 0.0 | 6.6 |
| 08/25 04:00 | 56 | 51 | 40 | 67 | 6 | 8 | 11 | 94 | 0.00 | 0.00 | 0.1 | 6.5 |
| 08/25 03:00 | 56 | 52 | 45 | 72 | 8 | 14 | 20 | 92 | 0.00 | 0.00 | 0.1 | 6.7 |
| 08/25 02:00 | 57 | 52 | 49 | 71 | 11 | 15 | 18 | 88 | 0.00 | 0.00 | 0.0 | 6.8 |
| 08/25 01:00 | 56 | 53 | 53 | 71 | 11 | 14 | 17 | 88 | 0.00 | 0.00 | 0.2 | 6.7 |
| 08/25 00:00 | 57 | 54 | 50 | 66 | 13 | 15 | 17 | 89 | 0.00 | 0.00 | 0.2 | 6.9 |
| 08/24 23:00 | 57 | 56 | 51 | 59 | 13 | 16 | 18 | 83 | 0.00 | 0.00 | 0.1 | 6.8 |
| 08/24 22:00 | 57 | 58 | 51 | 57 | 15 | 17 | 20 | 80 | 0.00 | 0.00 | 0.0 | 6.6 |

